createdAt,value
2018-02-10T00:00:31.906Z,17.05
2018-02-10T00:01:31.905Z,17.06
2018-02-10T00:02:31.936Z,17.06
2018-02-10T00:03:31.904Z,17.04
2018-02-10T00:04:31.909Z,17.05
2018-02-10T00:05:31.942Z,17.02
2018-02-10T00:06:31.901Z,17.01
2018-02-10T00:07:31.959Z,17.01
2018-02-10T00:08:31.917Z,17
2018-02-10T00:09:31.913Z,16.99
2018-02-10T00:10:31.926Z,17
2018-02-10T00:11:31.959Z,17.03
2018-02-10T00:12:31.924Z,16.98
2018-02-10T00:13:31.908Z,17.05
2018-02-10T00:14:31.906Z,17.03
2018-02-10T00:15:31.968Z,17.02
2018-02-10T00:16:31.962Z,17.01
2018-02-10T00:17:31.914Z,16.99
2018-02-10T00:18:31.904Z,16.97
2018-02-10T00:19:31.927Z,16.96
2018-02-10T00:20:31.914Z,16.95
2018-02-10T00:21:31.906Z,16.95
2018-02-10T00:22:31.964Z,16.94
2018-02-10T00:23:31.944Z,16.94
2018-02-10T00:24:31.910Z,16.94
2018-02-10T00:25:31.916Z,16.94
2018-02-10T00:26:31.939Z,16.94
2018-02-10T00:27:31.901Z,16.93
2018-02-10T00:28:31.904Z,16.93
2018-02-10T00:29:31.900Z,16.94
2018-02-10T00:30:31.921Z,16.93
2018-02-10T00:31:31.915Z,16.92
2018-02-10T00:32:31.900Z,16.93
2018-02-10T00:33:31.910Z,16.91
2018-02-10T00:34:31.949Z,16.9
2018-02-10T00:35:31.898Z,16.92
2018-02-10T00:36:31.928Z,16.9
2018-02-10T00:37:32.003Z,16.92
2018-02-10T00:38:31.889Z,16.9
2018-02-10T00:39:31.968Z,16.91
2018-02-10T00:40:31.899Z,16.91
2018-02-10T00:41:31.926Z,16.92
2018-02-10T00:42:31.903Z,16.89
2018-02-10T00:43:31.898Z,16.91
2018-02-10T00:44:31.928Z,16.9
2018-02-10T00:45:31.911Z,16.89
2018-02-10T00:46:31.964Z,16.9
2018-02-10T00:47:31.936Z,16.9
2018-02-10T00:48:31.910Z,16.87
2018-02-10T00:49:31.887Z,16.87
2018-02-10T00:50:31.900Z,16.86
2018-02-10T00:51:31.910Z,16.86
2018-02-10T00:52:31.918Z,16.87
2018-02-10T00:53:31.913Z,16.86
2018-02-10T00:54:31.897Z,16.84
2018-02-10T00:55:31.897Z,16.84
2018-02-10T00:56:31.944Z,16.83
2018-02-10T00:57:31.945Z,16.81
2018-02-10T00:58:31.949Z,16.84
2018-02-10T00:59:31.907Z,16.83
2018-02-10T01:00:31.971Z,16.81
2018-02-10T01:01:31.890Z,16.82
2018-02-10T01:02:31.905Z,16.83
2018-02-10T01:03:31.890Z,16.83
2018-02-10T01:04:31.899Z,16.82
2018-02-10T01:05:31.924Z,16.83
2018-02-10T01:06:31.910Z,16.8
2018-02-10T01:07:31.890Z,16.82
2018-02-10T01:08:31.876Z,16.8
2018-02-10T01:09:31.907Z,16.83
2018-02-10T01:10:31.941Z,16.82
2018-02-10T01:11:31.901Z,16.83
2018-02-10T01:12:31.879Z,16.81
2018-02-10T01:13:31.900Z,16.76
2018-02-10T01:14:31.909Z,16.78
2018-02-10T01:15:31.880Z,16.76
2018-02-10T01:16:31.921Z,16.77
2018-02-10T01:17:31.904Z,16.78
2018-02-10T01:18:31.936Z,16.75
2018-02-10T01:19:31.893Z,16.75
2018-02-10T01:20:31.895Z,16.74
2018-02-10T01:21:32.010Z,16.74
2018-02-10T01:22:31.891Z,16.74
2018-02-10T01:23:31.924Z,16.74
2018-02-10T01:24:31.894Z,16.72
2018-02-10T01:25:31.884Z,16.7
2018-02-10T01:26:31.896Z,16.73
2018-02-10T01:27:31.889Z,16.72
2018-02-10T01:28:32.087Z,16.71
2018-02-10T01:29:31.885Z,16.71
2018-02-10T01:30:31.881Z,16.71
2018-02-10T01:31:31.893Z,16.69
2018-02-10T01:32:31.881Z,16.7
2018-02-10T01:33:31.934Z,16.71
2018-02-10T01:34:31.889Z,16.72
2018-02-10T01:35:31.891Z,16.71
2018-02-10T01:36:32.014Z,16.7
2018-02-10T01:37:31.885Z,16.69
2018-02-10T01:38:31.875Z,16.69
2018-02-10T01:39:31.862Z,16.7
2018-02-10T01:40:31.868Z,16.67
2018-02-10T01:41:31.878Z,16.68
2018-02-10T01:42:31.906Z,16.68
2018-02-10T01:43:31.890Z,16.68
2018-02-10T01:44:31.877Z,16.7
2018-02-10T01:45:31.867Z,16.69
2018-02-10T01:46:31.876Z,16.69
2018-02-10T01:47:31.883Z,16.67
2018-02-10T01:48:31.883Z,16.68
2018-02-10T01:49:31.884Z,16.68
2018-02-10T01:50:31.872Z,16.66
2018-02-10T01:51:31.881Z,16.65
2018-02-10T01:52:31.873Z,16.64
2018-02-10T01:53:31.929Z,16.64
2018-02-10T01:54:31.875Z,16.62
2018-02-10T01:55:31.879Z,16.6
2018-02-10T01:56:31.889Z,16.62
2018-02-10T01:57:31.918Z,16.59
2018-02-10T01:58:31.900Z,16.57
2018-02-10T01:59:31.871Z,16.58
2018-02-10T02:00:31.921Z,16.59
2018-02-10T02:01:31.866Z,16.58
2018-02-10T02:02:31.916Z,16.59
2018-02-10T02:03:31.909Z,16.58
2018-02-10T02:04:31.923Z,16.56
2018-02-10T02:05:31.906Z,16.59
2018-02-10T02:06:31.863Z,16.59
2018-02-10T02:07:31.873Z,16.58
2018-02-10T02:08:31.877Z,16.58
2018-02-10T02:09:31.920Z,16.57
2018-02-10T02:10:31.913Z,16.57
2018-02-10T02:11:31.865Z,16.57
2018-02-10T02:12:31.922Z,16.57
2018-02-10T02:13:31.924Z,16.56
2018-02-10T02:14:31.863Z,16.56
2018-02-10T02:15:31.871Z,16.57
2018-02-10T02:16:31.859Z,16.54
2018-02-10T02:17:31.932Z,16.54
2018-02-10T02:18:31.916Z,16.54
2018-02-10T02:19:31.903Z,16.54
2018-02-10T02:20:31.861Z,16.53
2018-02-10T02:21:31.921Z,16.52
2018-02-10T02:22:31.933Z,16.53
2018-02-10T02:23:31.920Z,16.54
2018-02-10T02:24:31.857Z,16.52
2018-02-10T02:25:31.887Z,16.51
2018-02-10T02:26:31.912Z,16.53
2018-02-10T02:27:31.854Z,16.52
2018-02-10T02:28:31.904Z,16.5
2018-02-10T02:29:31.898Z,16.51
2018-02-10T02:30:31.886Z,16.52
2018-02-10T02:31:31.901Z,16.52
2018-02-10T02:32:31.899Z,16.48
2018-02-10T02:33:31.910Z,16.48
2018-02-10T02:34:31.901Z,16.49
2018-02-10T02:35:31.853Z,16.49
2018-02-10T02:36:31.865Z,16.5
2018-02-10T02:37:31.872Z,16.48
2018-02-10T02:38:31.960Z,16.49
2018-02-10T02:39:31.914Z,16.49
2018-02-10T02:40:31.856Z,16.48
2018-02-10T02:41:31.881Z,16.47
2018-02-10T02:42:31.901Z,16.46
2018-02-10T02:43:31.892Z,16.45
2018-02-10T02:44:31.853Z,16.44
2018-02-10T02:45:31.921Z,16.45
2018-02-10T02:46:31.893Z,16.45
2018-02-10T02:47:31.863Z,16.45
2018-02-10T02:48:31.879Z,16.47
2018-02-10T02:49:31.868Z,16.45
2018-02-10T02:50:31.912Z,16.43
2018-02-10T02:51:31.853Z,16.43
2018-02-10T02:52:31.906Z,16.42
2018-02-10T02:53:31.934Z,16.43
2018-02-10T02:54:31.861Z,16.44
2018-02-10T02:55:31.854Z,16.43
2018-02-10T02:56:31.849Z,16.43
2018-02-10T02:57:31.908Z,16.43
2018-02-10T02:58:31.855Z,16.44
2018-02-10T02:59:31.850Z,16.42
2018-02-10T03:00:31.852Z,16.44
2018-02-10T03:01:31.898Z,16.42
2018-02-10T03:02:31.844Z,16.42
2018-02-10T03:03:31.853Z,16.43
2018-02-10T03:04:31.852Z,16.44
2018-02-10T03:05:31.843Z,16.42
2018-02-10T03:06:31.878Z,16.41
2018-02-10T03:07:31.894Z,16.41
2018-02-10T03:08:31.889Z,16.41
2018-02-10T03:09:31.921Z,16.41
2018-02-10T03:10:31.853Z,16.39
2018-02-10T03:11:31.869Z,16.41
2018-02-10T03:12:31.900Z,16.41
2018-02-10T03:13:31.844Z,16.39
2018-02-10T03:14:31.870Z,16.39
2018-02-10T03:15:31.856Z,16.39
2018-02-10T03:16:31.846Z,16.4
2018-02-10T03:17:31.850Z,16.38
2018-02-10T03:18:31.885Z,16.38
2018-02-10T03:19:31.888Z,16.37
2018-02-10T03:20:31.886Z,16.37
2018-02-10T03:21:31.845Z,16.35
2018-02-10T03:22:31.882Z,16.36
2018-02-10T03:23:31.884Z,16.36
2018-02-10T03:24:31.850Z,16.35
2018-02-10T03:25:31.854Z,16.37
2018-02-10T03:26:31.837Z,16.35
2018-02-10T03:27:31.835Z,16.34
2018-02-10T03:28:31.844Z,16.34
2018-02-10T03:29:31.882Z,16.34
2018-02-10T03:30:31.915Z,16.34
2018-02-10T03:31:31.850Z,16.32
2018-02-10T03:32:31.893Z,16.32
2018-02-10T03:33:31.834Z,16.33
2018-02-10T03:34:31.846Z,16.32
2018-02-10T03:35:31.886Z,16.32
2018-02-10T03:36:31.881Z,16.33
2018-02-10T03:37:31.873Z,16.31
2018-02-10T03:38:31.840Z,16.31
2018-02-10T03:39:31.885Z,16.31
2018-02-10T03:40:31.837Z,16.31
2018-02-10T03:41:31.873Z,16.31
2018-02-10T03:42:31.829Z,16.29
2018-02-10T03:43:31.841Z,16.31
2018-02-10T03:44:31.830Z,16.32
2018-02-10T03:45:31.844Z,16.28
2018-02-10T03:46:31.830Z,16.31
2018-02-10T03:47:31.853Z,16.28
2018-02-10T03:48:31.838Z,16.29
2018-02-10T03:49:31.825Z,16.29
2018-02-10T03:50:31.879Z,16.28
2018-02-10T03:51:31.855Z,16.27
2018-02-10T03:52:31.872Z,16.29
2018-02-10T03:53:31.871Z,16.28
2018-02-10T03:54:31.859Z,16.27
2018-02-10T03:55:31.830Z,16.28
2018-02-10T03:56:31.864Z,16.28
2018-02-10T03:57:31.838Z,16.27
2018-02-10T03:58:31.823Z,16.27
2018-02-10T03:59:31.863Z,16.27
2018-02-10T04:00:31.825Z,16.28
2018-02-10T04:01:31.857Z,16.31
2018-02-10T04:02:31.834Z,16.26
2018-02-10T04:03:31.829Z,16.24
2018-02-10T04:04:31.867Z,16.26
2018-02-10T04:05:31.886Z,16.24
2018-02-10T04:06:31.867Z,16.25
2018-02-10T04:07:31.867Z,16.27
2018-02-10T04:08:31.818Z,16.25
2018-02-10T04:09:31.824Z,16.26
2018-02-10T04:10:31.828Z,16.25
2018-02-10T04:11:31.860Z,16.25
2018-02-10T04:12:31.865Z,16.25
2018-02-10T04:13:31.818Z,16.25
2018-02-10T04:14:31.831Z,16.24
2018-02-10T04:15:31.842Z,16.25
2018-02-10T04:16:31.831Z,16.23
2018-02-10T04:17:31.827Z,16.24
2018-02-10T04:18:31.809Z,16.23
2018-02-10T04:19:31.819Z,16.22
2018-02-10T04:20:31.864Z,16.21
2018-02-10T04:21:31.823Z,16.21
2018-02-10T04:22:31.817Z,16.22
2018-02-10T04:23:31.823Z,16.22
2018-02-10T04:24:31.858Z,16.21
2018-02-10T04:25:31.827Z,16.21
2018-02-10T04:26:31.888Z,16.21
2018-02-10T04:27:31.813Z,16.21
2018-02-10T04:28:31.863Z,16.21
2018-02-10T04:29:31.826Z,16.2
2018-02-10T04:30:31.804Z,16.2
2018-02-10T04:31:31.879Z,16.19
2018-02-10T04:32:31.853Z,16.19
2018-02-10T04:33:31.815Z,16.22
2018-02-10T04:34:31.871Z,16.21
2018-02-10T04:35:31.803Z,16.21
2018-02-10T04:36:31.866Z,16.22
2018-02-10T04:37:31.869Z,16.21
2018-02-10T04:38:31.860Z,16.2
2018-02-10T04:39:31.914Z,16.19
2018-02-10T04:40:31.809Z,16.18
2018-02-10T04:41:31.860Z,16.18
2018-02-10T04:42:31.819Z,16.19
2018-02-10T04:43:31.811Z,16.18
2018-02-10T04:44:31.814Z,16.17
2018-02-10T04:45:31.808Z,16.2
2018-02-10T04:46:31.867Z,16.2
2018-02-10T04:47:31.815Z,16.18
2018-02-10T04:48:31.828Z,16.18
2018-02-10T04:49:31.864Z,16.19
2018-02-10T04:50:31.841Z,16.18
2018-02-10T04:51:31.855Z,16.18
2018-02-10T04:52:31.808Z,16.19
2018-02-10T04:53:31.812Z,16.2
2018-02-10T04:54:31.840Z,16.21
2018-02-10T04:55:31.845Z,16.23
2018-02-10T04:56:31.809Z,16.23
2018-02-10T04:57:31.987Z,16.25
2018-02-10T04:58:31.810Z,16.25
2018-02-10T04:59:31.824Z,16.25
2018-02-10T05:00:31.848Z,16.25
2018-02-10T05:01:31.915Z,16.23
2018-02-10T05:02:31.829Z,16.25
2018-02-10T05:03:31.848Z,16.26
2018-02-10T05:04:31.828Z,16.24
2018-02-10T05:05:31.800Z,16.25
2018-02-10T05:06:31.814Z,16.24
2018-02-10T05:07:31.849Z,16.23
2018-02-10T05:08:31.805Z,16.23
2018-02-10T05:09:31.895Z,16.25
2018-02-10T05:10:31.804Z,16.25
2018-02-10T05:11:31.801Z,16.27
2018-02-10T05:12:31.811Z,16.26
2018-02-10T05:13:31.849Z,16.28
2018-02-10T05:14:31.850Z,16.28
2018-02-10T05:15:31.802Z,16.29
2018-02-10T05:16:31.852Z,16.3
2018-02-10T05:17:31.903Z,16.31
2018-02-10T05:18:31.795Z,16.31
2018-02-10T05:19:31.806Z,16.34
2018-02-10T05:20:31.796Z,16.35
2018-02-10T05:21:31.798Z,16.36
2018-02-10T05:22:31.800Z,16.38
2018-02-10T05:23:31.791Z,16.38
2018-02-10T05:24:31.792Z,16.38
2018-02-10T05:25:31.796Z,16.39
2018-02-10T05:26:31.803Z,16.41
2018-02-10T05:27:31.800Z,16.42
2018-02-10T05:28:31.792Z,16.43
2018-02-10T05:29:31.809Z,16.44
2018-02-10T05:30:31.803Z,16.46
2018-02-10T05:31:31.804Z,16.49
2018-02-10T05:32:31.795Z,16.49
2018-02-10T05:33:31.795Z,16.5
2018-02-10T05:34:31.825Z,16.53
2018-02-10T05:35:31.799Z,16.54
2018-02-10T05:36:31.841Z,16.55
2018-02-10T05:37:31.825Z,16.57
2018-02-10T05:38:31.817Z,16.58
2018-02-10T05:39:31.790Z,16.59
2018-02-10T05:40:31.800Z,16.6
2018-02-10T05:41:31.795Z,16.63
2018-02-10T05:42:31.791Z,16.65
2018-02-10T05:43:31.796Z,16.67
2018-02-10T05:44:31.802Z,16.69
2018-02-10T05:45:31.840Z,16.7
2018-02-10T05:46:31.798Z,16.73
2018-02-10T05:47:31.831Z,16.73
2018-02-10T05:48:31.861Z,16.75
2018-02-10T05:49:31.786Z,16.77
2018-02-10T05:50:31.841Z,16.78
2018-02-10T05:51:31.794Z,16.79
2018-02-10T05:52:31.802Z,16.82
2018-02-10T05:53:31.796Z,16.83
2018-02-10T05:54:31.783Z,16.84
2018-02-10T05:55:31.781Z,16.85
2018-02-10T05:56:31.779Z,16.86
2018-02-10T05:57:31.796Z,16.88
2018-02-10T05:58:31.804Z,16.89
2018-02-10T05:59:31.816Z,16.9
2018-02-10T06:00:31.784Z,16.91
2018-02-10T06:01:31.827Z,16.93
2018-02-10T06:02:31.782Z,16.95
2018-02-10T06:03:31.868Z,16.96
2018-02-10T06:04:31.786Z,16.97
2018-02-10T06:05:31.826Z,16.99
2018-02-10T06:06:31.787Z,17
2018-02-10T06:07:31.785Z,17.02
2018-02-10T06:08:31.808Z,17.03
2018-02-10T06:09:31.772Z,17.04
2018-02-10T06:10:31.796Z,17.05
2018-02-10T06:11:31.786Z,17.08
2018-02-10T06:12:31.799Z,17.07
2018-02-10T06:13:31.784Z,17.1
2018-02-10T06:14:31.791Z,17.1
2018-02-10T06:15:31.784Z,17.12
2018-02-10T06:16:31.810Z,17.13
2018-02-10T06:17:31.787Z,17.14
2018-02-10T06:18:31.792Z,17.14
2018-02-10T06:19:31.807Z,17.16
2018-02-10T06:20:31.781Z,17.16
2018-02-10T06:21:31.820Z,17.17
2018-02-10T06:22:31.791Z,17.19
2018-02-10T06:23:31.939Z,17.2
2018-02-10T06:24:31.780Z,17.22
2018-02-10T06:25:31.805Z,17.22
2018-02-10T06:26:31.770Z,17.23
2018-02-10T06:27:31.824Z,17.25
2018-02-10T06:28:31.802Z,17.25
2018-02-10T06:29:31.779Z,17.25
2018-02-10T06:30:31.768Z,17.27
2018-02-10T06:31:31.781Z,17.28
2018-02-10T06:32:31.775Z,17.29
2018-02-10T06:33:31.813Z,17.32
2018-02-10T06:34:31.795Z,17.31
2018-02-10T06:35:31.770Z,17.33
2018-02-10T06:36:31.823Z,17.33
2018-02-10T06:37:31.766Z,17.34
2018-02-10T06:38:31.817Z,17.35
2018-02-10T06:39:31.829Z,17.36
2018-02-10T06:40:31.929Z,17.37
2018-02-10T06:41:31.785Z,17.37
2018-02-10T06:42:31.790Z,17.39
2018-02-10T06:43:31.772Z,17.39
2018-02-10T06:44:31.804Z,17.4
2018-02-10T06:45:31.824Z,17.4
2018-02-10T06:46:31.773Z,17.41
2018-02-10T06:47:31.817Z,17.42
2018-02-10T06:48:31.809Z,17.42
2018-02-10T06:49:31.898Z,17.43
2018-02-10T06:50:31.818Z,17.44
2018-02-10T06:51:31.767Z,17.45
2018-02-10T06:52:31.798Z,17.45
2018-02-10T06:53:31.783Z,17.46
2018-02-10T06:54:31.841Z,17.46
2018-02-10T06:55:31.773Z,17.47
2018-02-10T06:56:34.021Z,17.47
2018-02-10T06:57:31.805Z,17.48
2018-02-10T06:58:31.758Z,17.48
2018-02-10T06:59:31.775Z,17.49
2018-02-10T07:00:31.769Z,17.49
2018-02-10T07:01:31.743Z,17.5
2018-02-10T07:02:31.766Z,17.5
2018-02-10T07:03:31.751Z,17.5
2018-02-10T07:04:31.830Z,17.51
2018-02-10T07:05:31.743Z,17.51
2018-02-10T07:06:31.790Z,17.52
2018-02-10T07:07:31.743Z,17.51
2018-02-10T07:08:31.743Z,17.51
2018-02-10T07:09:31.771Z,17.51
2018-02-10T07:10:31.763Z,17.5
2018-02-10T07:11:31.748Z,17.5
2018-02-10T07:12:31.751Z,17.5
2018-02-10T07:13:31.764Z,17.5
2018-02-10T07:14:31.754Z,17.5
2018-02-10T07:15:31.740Z,17.51
2018-02-10T07:16:31.752Z,17.5
2018-02-10T07:17:31.754Z,17.5
2018-02-10T07:18:31.746Z,17.51
2018-02-10T07:19:31.741Z,17.5
2018-02-10T07:20:31.761Z,17.5
2018-02-10T07:21:31.795Z,17.5
2018-02-10T07:22:31.744Z,17.49
2018-02-10T07:23:31.732Z,17.51
2018-02-10T07:24:31.741Z,17.51
2018-02-10T07:25:31.745Z,17.5
2018-02-10T07:26:31.761Z,17.5
2018-02-10T07:27:31.738Z,17.5
2018-02-10T07:28:31.743Z,17.5
2018-02-10T07:29:31.757Z,17.5
2018-02-10T07:30:31.750Z,17.49
2018-02-10T07:31:31.727Z,17.5
2018-02-10T07:32:31.786Z,17.5
2018-02-10T07:33:31.740Z,17.5
2018-02-10T07:34:31.734Z,17.5
2018-02-10T07:35:31.801Z,17.49
2018-02-10T07:36:31.741Z,17.5
2018-02-10T07:37:31.734Z,17.5
2018-02-10T07:38:31.747Z,17.49
2018-02-10T07:39:31.743Z,17.49
2018-02-10T07:40:31.759Z,17.49
2018-02-10T07:41:31.733Z,17.5
2018-02-10T07:42:31.735Z,17.51
2018-02-10T07:43:31.743Z,17.51
2018-02-10T07:44:31.741Z,17.48
2018-02-10T07:45:31.758Z,17.18
2018-02-10T07:46:31.788Z,16.95
2018-02-10T07:47:31.719Z,16.74
2018-02-10T07:48:31.746Z,16.66
2018-02-10T07:49:31.723Z,16.74
2018-02-10T07:50:31.735Z,16.83
2018-02-10T07:51:31.741Z,16.87
2018-02-10T07:52:31.730Z,16.93
2018-02-10T07:53:31.785Z,16.98
2018-02-10T07:54:31.731Z,17.04
2018-02-10T07:55:31.730Z,17.08
2018-02-10T07:56:31.732Z,17.11
2018-02-10T07:57:31.749Z,17.14
2018-02-10T07:58:31.732Z,17.16
2018-02-10T07:59:31.787Z,17.19
2018-02-10T08:00:31.754Z,17.21
2018-02-10T08:01:31.723Z,17.22
2018-02-10T08:02:31.891Z,17.25
2018-02-10T08:03:31.778Z,17.26
2018-02-10T08:04:31.784Z,17.28
2018-02-10T08:05:31.716Z,17.28
2018-02-10T08:06:31.758Z,17.3
2018-02-10T08:07:31.909Z,17.32
2018-02-10T08:08:31.778Z,17.33
2018-02-10T08:09:31.690Z,17.34
2018-02-10T08:10:31.680Z,17.35
2018-02-10T08:11:31.702Z,17.36
2018-02-10T08:12:31.718Z,17.37
2018-02-10T08:13:31.702Z,17.4
2018-02-10T08:14:31.696Z,17.41
2018-02-10T08:15:31.695Z,17.42
2018-02-10T08:16:31.789Z,17.43
2018-02-10T08:17:31.689Z,17.43
2018-02-10T08:18:31.710Z,17.45
2018-02-10T08:19:31.696Z,17.46
2018-02-10T08:20:31.683Z,17.47
2018-02-10T08:21:31.692Z,17.48
2018-02-10T08:22:31.698Z,17.49
2018-02-10T08:23:31.730Z,17.5
2018-02-10T08:24:31.710Z,17.5
2018-02-10T08:25:31.686Z,17.53
2018-02-10T08:26:31.682Z,17.52
2018-02-10T08:27:31.682Z,17.54
2018-02-10T08:28:31.688Z,17.55
2018-02-10T08:29:31.712Z,17.56
2018-02-10T08:30:31.685Z,17.56
2018-02-10T08:31:31.691Z,17.57
2018-02-10T08:32:31.692Z,17.58
2018-02-10T08:33:31.768Z,17.58
2018-02-10T08:34:31.692Z,17.6
2018-02-10T08:35:31.685Z,17.62
2018-02-10T08:36:31.691Z,17.61
2018-02-10T08:37:31.678Z,17.63
2018-02-10T08:38:31.688Z,17.63
2018-02-10T08:39:31.675Z,17.64
2018-02-10T08:40:31.695Z,17.64
2018-02-10T08:41:31.778Z,17.66
2018-02-10T08:42:31.693Z,17.67
2018-02-10T08:43:31.707Z,17.67
2018-02-10T08:44:31.694Z,17.68
2018-02-10T08:45:31.681Z,17.68
2018-02-10T08:46:31.680Z,17.68
2018-02-10T08:47:31.676Z,17.68
2018-02-10T08:48:31.720Z,17.69
2018-02-10T08:49:31.681Z,17.71
2018-02-10T08:50:31.674Z,17.71
2018-02-10T08:51:31.688Z,17.71
2018-02-10T08:52:31.666Z,17.72
2018-02-10T08:53:31.709Z,17.72
2018-02-10T08:54:31.692Z,17.73
2018-02-10T08:55:31.693Z,17.73
2018-02-10T08:56:31.674Z,17.74
2018-02-10T08:57:31.708Z,17.73
2018-02-10T08:58:31.712Z,17.73
2018-02-10T08:59:31.679Z,17.75
2018-02-10T09:00:31.676Z,17.75
2018-02-10T09:01:31.695Z,17.76
2018-02-10T09:02:31.675Z,17.77
2018-02-10T09:03:31.675Z,17.76
2018-02-10T09:04:31.691Z,17.77
2018-02-10T09:05:31.674Z,17.77
2018-02-10T09:06:31.691Z,17.76
2018-02-10T09:07:31.711Z,17.78
2018-02-10T09:08:31.681Z,17.78
2018-02-10T09:09:31.704Z,17.77
2018-02-10T09:10:31.679Z,17.78
2018-02-10T09:11:31.690Z,17.79
2018-02-10T09:12:31.667Z,17.79
2018-02-10T09:13:31.678Z,17.79
2018-02-10T09:14:31.683Z,17.79
2018-02-10T09:15:31.952Z,17.78
2018-02-10T09:16:31.768Z,17.79
2018-02-10T09:17:31.715Z,17.79
2018-02-10T09:18:31.675Z,17.78
2018-02-10T09:19:31.672Z,17.79
2018-02-10T09:20:31.720Z,17.79
2018-02-10T09:21:31.667Z,17.77
2018-02-10T09:22:31.689Z,17.8
2018-02-10T09:23:31.670Z,17.81
2018-02-10T09:24:31.664Z,17.82
2018-02-10T09:25:31.703Z,17.82
2018-02-10T09:26:31.692Z,17.83
2018-02-10T09:27:31.681Z,17.84
2018-02-10T09:28:31.683Z,17.86
2018-02-10T09:29:31.682Z,17.86
2018-02-10T09:30:31.673Z,17.88
2018-02-10T09:31:31.932Z,17.89
2018-02-10T09:32:31.681Z,17.9
2018-02-10T09:33:31.662Z,17.9
2018-02-10T09:34:31.654Z,17.91
2018-02-10T09:35:31.655Z,17.92
2018-02-10T09:36:31.696Z,17.93
2018-02-10T09:37:31.674Z,17.92
2018-02-10T09:38:31.670Z,17.94
2018-02-10T09:39:31.673Z,17.94
2018-02-10T09:40:31.692Z,17.95
2018-02-10T09:41:31.666Z,17.97
2018-02-10T09:42:31.665Z,17.97
2018-02-10T09:43:31.673Z,17.98
2018-02-10T09:44:31.682Z,17.98
2018-02-10T09:45:31.666Z,18
2018-02-10T09:46:31.660Z,18.01
2018-02-10T09:47:31.803Z,18.02
2018-02-10T09:48:31.660Z,18.02
2018-02-10T09:49:31.689Z,18.01
2018-02-10T09:50:31.661Z,17.99
2018-02-10T09:51:31.654Z,18.01
2018-02-10T09:52:31.696Z,18
2018-02-10T09:53:31.716Z,18
2018-02-10T09:54:31.660Z,18
2018-02-10T09:55:31.676Z,18
2018-02-10T09:56:31.721Z,18.03
2018-02-10T09:57:31.788Z,18.03
2018-02-10T09:58:31.705Z,18.02
2018-02-10T09:59:31.676Z,18.04
2018-02-10T10:00:31.685Z,18.05
2018-02-10T10:01:31.955Z,18.04
2018-02-10T10:02:31.680Z,18.05
2018-02-10T10:03:31.726Z,18.09
2018-02-10T10:04:31.665Z,18.09
2018-02-10T10:05:31.673Z,18.13
2018-02-10T10:06:31.681Z,18.14
2018-02-10T10:07:31.663Z,18.13
2018-02-10T10:08:31.708Z,18.13
2018-02-10T10:09:31.648Z,18.13
2018-02-10T10:10:31.661Z,18.13
2018-02-10T10:11:31.677Z,18.13
2018-02-10T10:12:31.792Z,18.14
2018-02-10T10:13:31.652Z,18.13
2018-02-10T10:14:31.651Z,18.13
2018-02-10T10:15:31.653Z,18.12
2018-02-10T10:16:31.674Z,18.13
2018-02-10T10:17:31.697Z,18.13
2018-02-10T10:18:31.650Z,18.13
2018-02-10T10:19:31.669Z,18.13
2018-02-10T10:20:31.747Z,18.13
2018-02-10T10:21:31.729Z,18.14
2018-02-10T10:22:31.722Z,18.13
2018-02-10T10:23:31.726Z,18.14
2018-02-10T10:24:31.719Z,18.13
2018-02-10T10:25:31.713Z,18.14
2018-02-10T10:26:31.700Z,18.13
2018-02-10T10:27:31.734Z,18.13
2018-02-10T10:48:35.153Z,18.76
2018-02-10T10:48:47.569Z,18.76
2018-02-10T10:49:47.161Z,18.74
2018-02-10T10:50:36.443Z,18.63
2018-02-10T10:51:35.756Z,18.62
2018-02-10T10:52:35.768Z,18.55
2018-02-10T10:53:35.773Z,18.51
2018-02-10T10:54:35.765Z,18.48
2018-02-10T10:55:35.753Z,18.45
2018-02-10T10:56:35.749Z,18.42
2018-02-10T10:57:35.765Z,18.44
2018-02-10T10:58:35.773Z,18.37
2018-02-10T10:59:35.877Z,18.33
2018-02-10T11:00:35.867Z,18.31
2018-02-10T11:01:35.765Z,18.31
2018-02-10T11:02:35.746Z,18.35
2018-02-10T11:03:35.767Z,18.36
2018-02-10T11:04:35.753Z,18.36
2018-02-10T11:05:35.761Z,18.37
2018-02-10T11:06:35.951Z,18.37
2018-02-10T11:07:35.779Z,18.38
2018-02-10T11:08:35.738Z,18.39
2018-02-10T11:09:35.779Z,18.4
2018-02-10T11:10:35.742Z,18.42
2018-02-10T11:11:35.806Z,18.45
2018-02-10T11:12:35.760Z,18.45
2018-02-10T11:13:35.767Z,18.46
2018-02-10T11:14:35.772Z,18.46
2018-02-10T11:15:35.797Z,18.49
2018-02-10T11:16:49.981Z,18.52
2018-02-10T11:17:49.466Z,18.51
2018-02-10T11:18:46.385Z,18.55
2018-02-10T11:19:45.997Z,18.53
2018-02-10T11:20:45.977Z,18.53
2018-02-10T11:21:45.985Z,18.54
2018-02-10T11:22:45.978Z,18.56
2018-02-10T11:23:13.235Z,18.67
2018-02-10T11:24:12.829Z,18.65
2018-02-10T11:25:24.382Z,18.65
2018-02-10T11:26:23.962Z,18.64
2018-02-10T11:27:24.003Z,18.63
2018-02-10T11:28:23.964Z,18.62
2018-02-10T11:29:23.976Z,18.64
2018-02-10T11:32:24.134Z,18.66
2018-02-10T11:33:24.099Z,18.66
2018-02-10T11:34:24.007Z,18.67
2018-02-10T11:35:24.005Z,18.68
2018-02-10T11:36:24.027Z,18.7
2018-02-10T11:37:24.083Z,18.7
2018-02-10T11:39:23.958Z,18.71
2018-02-10T11:40:23.976Z,18.71
2018-02-10T11:41:23.959Z,18.72
2018-02-10T11:42:24.039Z,18.73
2018-02-10T11:43:24.068Z,18.74
2018-02-10T11:44:24.068Z,18.67
2018-02-10T11:45:23.974Z,18.66
2018-02-10T11:47:24.025Z,18.61
2018-02-10T11:48:23.977Z,18.59
2018-02-10T11:49:24.059Z,18.57
2018-02-10T11:50:23.973Z,18.56
2018-02-10T11:51:23.995Z,18.54
2018-02-10T11:52:23.977Z,18.53
2018-02-10T11:53:23.974Z,18.51
2018-02-10T11:54:23.950Z,18.5
2018-02-10T11:55:24.091Z,18.49
2018-02-10T11:56:24.015Z,18.48
2018-02-10T11:57:24.027Z,18.46
2018-02-10T11:58:24.146Z,18.48
2018-02-10T11:59:24.124Z,18.56
2018-02-10T12:00:24.090Z,18.58
2018-02-10T12:01:23.973Z,18.59
2018-02-10T12:02:24.021Z,18.61
2018-02-10T12:03:24.010Z,18.63
2018-02-10T12:04:24.065Z,18.65
2018-02-10T12:05:23.977Z,18.67
2018-02-10T12:06:23.988Z,18.68
2018-02-10T12:07:23.982Z,18.71
2018-02-10T12:08:23.976Z,18.73
2018-02-10T12:09:24.019Z,18.73
2018-02-10T12:10:23.971Z,18.75
2018-02-10T12:11:24.006Z,18.77
2018-02-10T12:12:24.012Z,18.79
2018-02-10T12:13:24.006Z,18.82
2018-02-10T12:14:23.992Z,18.83
2018-02-10T12:15:24.050Z,18.85
2018-02-10T12:16:23.974Z,18.87
2018-02-10T12:17:24.067Z,18.88
2018-02-10T12:18:10.857Z,18.92
2018-02-10T12:19:10.410Z,18.91
2018-02-10T12:19:23.167Z,18.93
2018-02-10T12:20:22.871Z,18.92
2018-02-10T12:20:37.963Z,18.94
2018-02-10T12:21:35.210Z,18.92
2018-02-10T12:21:47.894Z,18.97
2018-02-10T12:22:47.481Z,18.97
2018-02-10T12:23:00.508Z,18.98
2018-02-10T12:23:59.828Z,18.98
2018-02-10T12:24:12.644Z,19.07
2018-02-10T12:25:12.272Z,19.04
2018-02-10T12:25:25.028Z,19.08
2018-02-10T12:26:24.687Z,19.08
2018-02-10T12:26:37.812Z,19.08
2018-02-10T12:27:46.773Z,19.06
2018-02-10T12:28:46.435Z,19.06
2018-02-10T12:29:46.650Z,19.05
2018-02-10T12:30:46.463Z,19.06
2018-02-10T12:31:46.380Z,19.07
2018-02-10T12:32:46.408Z,19.06
2018-02-10T12:33:46.341Z,19.12
2018-02-10T12:34:46.384Z,19.15
2018-02-10T12:35:46.448Z,19.15
2018-02-10T12:36:46.355Z,19.16
2018-02-10T12:37:46.396Z,19.18
2018-02-10T12:38:46.545Z,19.18
2018-02-10T12:39:46.376Z,19.17
2018-02-10T12:40:46.366Z,19.17
2018-02-10T12:41:46.440Z,19.17
2018-02-10T12:42:46.364Z,19.18
2018-02-10T12:43:46.344Z,19.17
2018-02-10T12:44:46.442Z,19.18
2018-02-10T12:45:46.382Z,19.18
2018-02-10T12:46:46.335Z,19.18
2018-02-10T12:47:46.549Z,19.21
2018-02-10T12:48:46.398Z,19.21
2018-02-10T12:49:46.343Z,19.2
2018-02-10T12:50:46.339Z,19.22
2018-02-10T12:51:46.381Z,19.23
2018-02-10T12:52:46.379Z,19.22
2018-02-10T12:54:53.895Z,19.25
2018-02-10T12:55:53.932Z,19.24
2018-02-10T12:56:46.881Z,19.3
2018-02-10T12:57:46.327Z,19.27
2018-02-10T12:58:46.304Z,19.28
2018-02-10T12:59:46.411Z,19.29
2018-02-10T13:00:46.361Z,19.29
2018-02-10T13:01:46.320Z,19.3
2018-02-10T13:02:46.314Z,19.31
2018-02-10T13:03:46.329Z,19.33
2018-02-10T13:04:46.320Z,19.34
2018-02-10T13:05:46.327Z,19.35
2018-02-10T13:06:54.068Z,19.38
2018-02-10T13:07:53.566Z,19.38
2018-02-10T13:08:53.572Z,19.37
2018-02-10T13:09:53.564Z,19.38
2018-02-10T13:10:53.562Z,19.39
2018-02-10T13:11:53.579Z,19.4
2018-02-10T13:12:53.609Z,19.41
2018-02-10T13:13:53.649Z,19.42